createdAt,value
2019-06-26T00:02:15.867Z,8.30
2019-06-26T00:04:45.529Z,8.83
2019-06-26T00:07:15.542Z,7.97
2019-06-26T00:09:45.232Z,7.93
2019-06-26T00:12:15.024Z,8.57
2019-06-26T00:14:44.949Z,8.60
2019-06-26T00:17:14.831Z,9.03
2019-06-26T00:19:44.558Z,8.63
2019-06-26T00:22:14.249Z,8.57
2019-06-26T00:24:43.931Z,8.60
2019-06-26T00:27:13.637Z,9.40
2019-06-26T00:29:43.317Z,8.30
2019-06-26T00:32:12.975Z,8.30
2019-06-26T00:34:42.716Z,9.00
2019-06-26T00:37:12.421Z,9.03
2019-06-26T00:39:42.214Z,8.27
2019-06-26T00:42:11.923Z,9.63
2019-06-26T00:44:41.660Z,8.47
2019-06-26T00:47:11.548Z,8.63
2019-06-26T00:49:41.254Z,10.00
2019-06-26T00:52:11.033Z,9.60
2019-06-26T00:54:40.709Z,9.57
2019-06-26T00:57:10.510Z,8.60
2019-06-26T00:59:40.230Z,9.93
2019-06-26T01:02:09.903Z,9.17
2019-06-26T01:04:42.133Z,8.80
2019-06-26T01:07:11.972Z,10.20
2019-06-26T01:09:41.676Z,9.30
2019-06-26T01:12:11.386Z,9.97
2019-06-26T01:14:41.115Z,10.47
2019-06-26T01:17:10.989Z,9.57
2019-06-26T01:19:40.702Z,9.90
2019-06-26T01:22:10.412Z,10.07
2019-06-26T01:24:40.189Z,9.67
2019-06-26T01:27:10.282Z,10.13
2019-06-26T01:29:39.954Z,9.00
2019-06-26T01:32:09.656Z,9.53
2019-06-26T01:34:39.389Z,9.70
2019-06-26T01:37:09.164Z,10.37
2019-06-26T01:39:38.966Z,10.20
2019-06-26T01:42:08.690Z,10.67
2019-06-26T01:44:38.394Z,9.93
2019-06-26T01:47:08.146Z,8.93
2019-06-26T01:49:37.874Z,9.73
2019-06-26T01:52:07.587Z,10.00
2019-06-26T01:54:37.361Z,10.00
2019-06-26T01:57:07.385Z,9.50
2019-06-26T01:59:37.414Z,9.30
2019-06-26T02:02:07.136Z,10.17
2019-06-26T02:04:36.894Z,10.60
2019-06-26T02:07:06.663Z,9.63
2019-06-26T02:09:36.638Z,10.73
2019-06-26T02:12:06.420Z,10.67
2019-06-26T02:14:36.187Z,8.97
2019-06-26T02:17:06.061Z,11.20
2019-06-26T02:19:35.774Z,10.53
2019-06-26T02:22:05.576Z,10.67
2019-06-26T02:24:35.673Z,11.77
2019-06-26T02:27:05.359Z,10.63
2019-06-26T02:29:35.068Z,10.27
2019-06-26T02:32:04.833Z,11.00
2019-06-26T02:34:34.517Z,11.53
2019-06-26T02:37:04.255Z,11.73
2019-06-26T02:39:53.248Z,11.00
2019-06-26T02:42:22.880Z,10.73
2019-06-26T02:44:54.354Z,11.33
2019-06-26T02:47:24.096Z,12.50
2019-06-26T02:49:54.108Z,12.10
2019-06-26T02:52:23.800Z,12.47
2019-06-26T02:54:53.732Z,12.03
2019-06-26T02:57:23.634Z,13.13
2019-06-26T02:59:53.357Z,12.03
2019-06-26T03:02:23.084Z,13.50
2019-06-26T03:04:52.849Z,13.07
2019-06-26T03:07:22.531Z,13.03
2019-06-26T03:09:52.225Z,13.13
2019-06-26T03:12:21.941Z,12.53
2019-06-26T03:15:04.655Z,14.20
2019-06-26T03:17:23.618Z,12.60
2019-06-26T03:19:53.486Z,13.23
2019-06-26T03:22:23.163Z,12.83
2019-06-26T03:24:52.947Z,13.40
2019-06-26T03:27:22.716Z,13.13
2019-06-26T03:29:52.410Z,12.20
2019-06-26T03:32:22.084Z,12.83
2019-06-26T03:34:51.823Z,13.30
2019-06-26T03:37:21.501Z,13.80
2019-06-26T03:39:51.219Z,12.30
2019-06-26T03:42:20.893Z,12.90
2019-06-26T03:44:50.565Z,14.00
2019-06-26T03:47:20.370Z,14.50
2019-06-26T03:49:50.062Z,12.97
2019-06-26T03:52:19.779Z,13.97
2019-06-26T03:54:49.484Z,14.40
2019-06-26T03:57:19.427Z,14.07
2019-06-26T03:59:49.161Z,14.17
2019-06-26T04:02:18.945Z,14.03
2019-06-26T04:04:48.593Z,14.73
2019-06-26T04:07:18.334Z,14.83
2019-06-26T04:09:48.032Z,14.20
2019-06-26T04:12:17.903Z,14.50
2019-06-26T04:14:47.552Z,13.10
2019-06-26T04:17:17.283Z,15.07
2019-06-26T04:19:46.940Z,13.20
2019-06-26T04:22:16.596Z,14.50
2019-06-26T04:24:46.312Z,14.70
2019-06-26T04:27:15.984Z,14.10
2019-06-26T04:29:45.708Z,14.43
2019-06-26T04:32:15.659Z,15.07
2019-06-26T04:34:45.381Z,14.30
2019-06-26T04:37:15.277Z,15.40
2019-06-26T04:39:44.961Z,13.67
2019-06-26T04:42:14.645Z,16.30
2019-06-26T04:44:44.332Z,16.30
2019-06-26T04:47:14.055Z,14.70
2019-06-26T04:49:43.752Z,16.93
2019-06-26T04:52:13.467Z,16.10
2019-06-26T04:54:43.202Z,16.00
2019-06-26T04:57:12.867Z,16.00
2019-06-26T04:59:42.939Z,16.27
2019-06-26T05:02:12.605Z,16.47
2019-06-26T05:04:42.665Z,16.87
2019-06-26T05:07:12.390Z,16.40
2019-06-26T05:09:42.072Z,17.80
2019-06-26T05:12:11.741Z,17.03
2019-06-26T05:14:41.555Z,16.93
2019-06-26T05:17:11.320Z,16.63
2019-06-26T05:19:41.097Z,17.70
2019-06-26T05:22:11.034Z,16.80
2019-06-26T05:24:40.737Z,15.27
2019-06-26T05:27:10.718Z,17.80
2019-06-26T05:29:40.383Z,17.50
2019-06-26T05:32:10.167Z,17.17
2019-06-26T05:34:39.870Z,18.13
2019-06-26T05:37:09.577Z,16.80
2019-06-26T05:39:39.290Z,16.27
2019-06-26T05:42:09.466Z,17.77
2019-06-26T05:44:40.726Z,19.97
2019-06-26T05:47:10.516Z,17.33
2019-06-26T05:49:40.174Z,17.37
2019-06-26T05:52:10.168Z,18.30
2019-06-26T05:54:39.859Z,16.43
2019-06-26T05:57:09.591Z,18.10
2019-06-26T05:59:39.386Z,16.73
2019-06-26T06:02:09.499Z,16.13
2019-06-26T06:04:39.161Z,16.10
2019-06-26T06:07:08.832Z,15.60
2019-06-26T06:09:38.617Z,16.80
2019-06-26T06:12:08.310Z,17.10
2019-06-26T06:14:38.033Z,15.53
2019-06-26T06:17:07.721Z,15.97
2019-06-26T06:19:37.469Z,16.73
2019-06-26T06:22:07.160Z,17.50
2019-06-26T06:24:36.872Z,17.00
2019-06-26T06:27:06.657Z,16.17
2019-06-26T06:29:36.358Z,15.83
2019-06-26T06:32:06.281Z,15.63
2019-06-26T06:34:36.024Z,15.63
2019-06-26T06:37:05.987Z,15.33
2019-06-26T06:39:35.685Z,14.97
2019-06-26T06:42:05.568Z,15.10
2019-06-26T06:44:35.301Z,15.10
2019-06-26T06:47:08.803Z,14.60
2019-06-26T06:49:36.371Z,14.80
2019-06-26T06:52:06.283Z,14.20
2019-06-26T06:54:36.054Z,13.27
2019-06-26T06:57:05.952Z,14.20
2019-06-26T06:59:35.620Z,14.20
2019-06-26T07:02:05.396Z,14.10
2019-06-26T07:04:35.403Z,14.53
2019-06-26T07:07:05.167Z,13.60
2019-06-26T07:09:34.897Z,13.17
2019-06-26T07:12:04.745Z,12.87
2019-06-26T07:14:34.473Z,12.93
2019-06-26T07:17:19.215Z,14.20
2019-06-26T07:19:35.692Z,12.90
2019-06-26T07:22:07.394Z,12.37
2019-06-26T07:24:36.965Z,12.73
2019-06-26T07:27:06.957Z,11.93
2019-06-26T07:29:36.673Z,11.63
2019-06-26T07:32:06.327Z,13.20
2019-06-26T07:34:36.047Z,11.87
2019-06-26T07:37:05.964Z,13.17
2019-06-26T07:39:35.756Z,10.90
2019-06-26T07:42:05.559Z,12.30
2019-06-26T07:44:35.295Z,11.10
2019-06-26T07:47:18.394Z,11.23
2019-06-26T07:49:36.403Z,11.20
2019-06-26T07:52:06.095Z,11.47
2019-06-26T07:54:35.961Z,12.80
2019-06-26T07:57:05.653Z,12.57
2019-06-26T07:59:35.681Z,10.67
2019-06-26T08:02:05.431Z,10.83
2019-06-26T08:04:35.147Z,10.50
2019-06-26T08:07:04.880Z,10.00
2019-06-26T08:09:34.566Z,8.83
2019-06-26T08:12:04.369Z,9.77
2019-06-26T08:14:34.068Z,8.60
2019-06-26T08:17:03.727Z,7.97
2019-06-26T08:19:33.480Z,9.00
2019-06-26T08:22:03.149Z,8.37
2019-06-26T08:24:32.819Z,8.27
2019-06-26T08:27:02.531Z,8.70
2019-06-26T08:29:32.213Z,8.80
2019-06-26T08:32:01.935Z,9.30
2019-06-26T08:34:31.734Z,8.90
2019-06-26T08:37:01.374Z,8.80
2019-06-26T08:39:31.068Z,9.33
2019-06-26T08:42:00.862Z,9.30
2019-06-26T08:44:30.573Z,8.90
2019-06-26T08:47:00.267Z,8.50
2019-06-26T08:49:30.170Z,9.40
2019-06-26T08:52:00.640Z,8.93
2019-06-26T08:54:30.359Z,8.70
2019-06-26T08:57:00.419Z,8.63
2019-06-26T08:59:30.179Z,8.10
2019-06-26T09:01:59.927Z,7.93
2019-06-26T09:04:29.659Z,9.07
2019-06-26T09:06:59.343Z,7.83
2019-06-26T09:09:28.970Z,7.80
2019-06-26T09:11:58.733Z,8.30
2019-06-26T09:14:28.389Z,7.20
2019-06-26T09:16:58.149Z,7.07
2019-06-26T09:19:27.863Z,6.80
2019-06-26T09:21:57.846Z,8.17
2019-06-26T09:24:27.537Z,7.03
2019-06-26T09:26:57.239Z,6.80
2019-06-26T09:29:26.939Z,6.50
2019-06-26T09:31:56.674Z,7.00
2019-06-26T09:34:26.406Z,6.50
2019-06-26T09:36:56.130Z,7.60
2019-06-26T09:39:26.124Z,6.67
2019-06-26T09:41:55.832Z,6.80
2019-06-26T09:44:25.487Z,5.90
2019-06-26T09:46:55.224Z,6.67
2019-06-26T09:49:24.924Z,5.63
2019-06-26T09:51:54.589Z,5.87
2019-06-26T09:54:24.285Z,5.80
2019-06-26T09:56:53.949Z,6.70
2019-06-26T09:59:24.040Z,6.77
2019-06-26T10:01:53.733Z,5.60
2019-06-26T10:04:23.449Z,6.37
2019-06-26T10:06:53.199Z,6.70
2019-06-26T10:09:23.033Z,6.80
2019-06-26T10:11:52.857Z,6.43
2019-06-26T10:14:22.546Z,6.47
2019-06-26T10:16:52.199Z,6.27
2019-06-26T10:19:21.911Z,6.20
2019-06-26T10:21:51.712Z,6.10
2019-06-26T10:24:21.788Z,5.40
2019-06-26T10:26:51.541Z,5.00
2019-06-26T10:29:21.280Z,5.33
2019-06-26T10:31:51.002Z,5.10
2019-06-26T10:34:20.693Z,5.97
2019-06-26T10:36:50.727Z,5.77
2019-06-26T10:39:20.486Z,5.93
2019-06-26T10:41:54.584Z,5.30
2019-06-26T10:44:21.748Z,5.17
2019-06-26T10:46:51.662Z,5.97
2019-06-26T10:49:26.857Z,5.53
2019-06-26T10:51:53.133Z,5.90
2019-06-26T10:54:22.782Z,5.10
2019-06-26T10:56:52.523Z,5.93
2019-06-26T10:59:22.222Z,5.10
2019-06-26T11:01:51.996Z,5.37
2019-06-26T11:04:21.665Z,5.20
2019-06-26T11:06:51.505Z,5.93
2019-06-26T11:09:21.162Z,5.53
2019-06-26T11:11:51.256Z,4.97
2019-06-26T11:14:20.972Z,5.20
2019-06-26T11:16:50.648Z,4.50
2019-06-26T11:19:20.331Z,4.57
2019-06-26T11:21:50.101Z,4.60
2019-06-26T11:24:19.857Z,4.07
2019-06-26T11:26:49.566Z,4.30
2019-06-26T11:29:19.216Z,4.20
2019-06-26T11:31:48.908Z,4.20
2019-06-26T11:34:18.632Z,3.93
2019-06-26T11:37:02.822Z,3.93
2019-06-26T11:39:19.684Z,3.90
2019-06-26T11:41:49.418Z,4.43
2019-06-26T11:44:19.067Z,3.57
2019-06-26T11:46:48.793Z,3.73
2019-06-26T11:49:18.587Z,4.40
2019-06-26T11:51:48.304Z,3.93
2019-06-26T11:54:18.346Z,4.73
2019-06-26T11:56:48.100Z,4.40
2019-06-26T11:59:18.084Z,5.17
2019-06-26T12:01:48.086Z,4.40
2019-06-26T12:04:17.760Z,4.20
2019-06-26T12:06:47.470Z,4.03
2019-06-26T12:09:17.155Z,4.35
2019-06-26T12:11:46.843Z,3.60
2019-06-26T12:14:16.543Z,4.40
2019-06-26T12:16:46.262Z,3.90
2019-06-26T12:19:19.053Z,4.03
2019-06-26T12:21:47.415Z,3.23
2019-06-26T12:24:17.164Z,4.17
2019-06-26T12:26:46.958Z,3.50
2019-06-26T12:29:16.709Z,3.23
2019-06-26T12:31:46.513Z,4.47
2019-06-26T12:34:16.210Z,4.10
2019-06-26T12:36:45.861Z,3.60
2019-06-26T12:39:15.589Z,3.80
2019-06-26T12:41:45.236Z,4.20
2019-06-26T12:44:15.006Z,3.93
2019-06-26T12:46:44.696Z,3.60
2019-06-26T12:49:14.351Z,3.47
2019-06-26T12:51:44.077Z,3.95
2019-06-26T12:54:13.827Z,3.70
2019-06-26T12:56:43.535Z,3.70
2019-06-26T12:59:13.267Z,3.73
2019-06-26T13:01:43.180Z,3.37
2019-06-26T13:04:13.357Z,3.80
2019-06-26T13:06:43.058Z,3.73
2019-06-26T13:09:12.743Z,3.90
2019-06-26T13:11:42.532Z,4.27
2019-06-26T13:14:12.258Z,4.07
2019-06-26T13:16:42.057Z,3.90
2019-06-26T13:19:11.766Z,3.67
2019-06-26T13:21:41.812Z,4.00
2019-06-26T13:24:11.665Z,3.73
2019-06-26T13:26:41.298Z,3.90
2019-06-26T13:29:10.980Z,3.95
2019-06-26T13:31:40.717Z,3.10
2019-06-26T13:34:10.411Z,3.75
2019-06-26T13:36:40.133Z,4.30
2019-06-26T13:39:09.993Z,4.10
2019-06-26T13:41:39.762Z,4.30
2019-06-26T13:44:11.941Z,3.30
2019-06-26T13:46:41.590Z,4.00
2019-06-26T13:49:11.342Z,3.22
2019-06-26T13:51:41.106Z,3.70
2019-06-26T13:54:10.848Z,3.27
2019-06-26T13:56:40.467Z,3.37
2019-06-26T13:59:10.258Z,3.90
2019-06-26T14:01:39.961Z,3.52
2019-06-26T14:07:00.436Z,3.87
2019-06-26T14:09:30.122Z,3.37
2019-06-26T14:12:00.127Z,4.20
2019-06-26T14:14:52.556Z,4.17
2019-06-26T14:17:01.226Z,4.80
2019-06-26T14:19:31.176Z,4.03
2019-06-26T14:22:01.144Z,4.30
2019-06-26T14:24:31.178Z,4.30
2019-06-26T14:27:00.847Z,4.00
2019-06-26T14:29:30.554Z,3.97
2019-06-26T14:32:00.459Z,4.15
2019-06-26T14:34:31.146Z,3.90
2019-06-26T14:37:00.830Z,3.93
2019-06-26T14:39:30.619Z,3.93
2019-06-26T14:42:00.324Z,3.97
2019-06-26T14:44:30.083Z,3.87
2019-06-26T14:46:59.758Z,3.90
2019-06-26T14:49:29.440Z,4.30
2019-06-26T14:52:35.327Z,3.90
2019-06-26T14:55:05.747Z,4.00
2019-06-26T14:57:35.411Z,4.33
2019-06-26T15:00:07.151Z,4.23
2019-06-26T15:02:36.842Z,3.80
2019-06-26T15:09:06.640Z,4.30
2019-06-26T15:11:36.362Z,5.03
2019-06-26T15:14:06.206Z,5.03
2019-06-26T15:16:35.867Z,4.00
2019-06-26T15:19:05.616Z,4.50
2019-06-26T15:21:35.316Z,4.37
2019-06-26T15:24:05.329Z,4.83
2019-06-26T15:26:35.139Z,4.50
2019-06-26T15:29:04.788Z,4.07
2019-06-26T15:31:34.499Z,4.70
2019-06-26T15:34:04.276Z,5.57
2019-06-26T15:36:33.947Z,5.73
2019-06-26T15:39:04.731Z,5.43
2019-06-26T15:41:34.489Z,5.67
2019-06-26T15:44:04.598Z,4.97
2019-06-26T15:46:34.334Z,6.03
2019-06-26T15:49:04.131Z,6.07
2019-06-26T15:51:33.856Z,5.20
2019-06-26T15:54:03.577Z,5.70
2019-06-26T15:56:33.257Z,4.93
2019-06-26T15:59:03.089Z,4.57
2019-06-26T16:01:32.748Z,4.50
2019-06-26T16:04:02.471Z,5.30
2019-06-26T16:06:32.163Z,3.97
2019-06-26T16:09:01.883Z,3.90
2019-06-26T16:11:31.573Z,4.07
2019-06-26T16:14:01.536Z,3.43
2019-06-26T16:16:32.311Z,4.67
2019-06-26T16:19:07.079Z,3.73
2019-06-26T16:21:36.786Z,3.80
2019-06-26T16:24:06.820Z,3.53
2019-06-26T16:26:36.491Z,4.23
2019-06-26T16:29:06.146Z,3.50
2019-06-26T16:31:35.928Z,3.97
2019-06-26T16:34:05.752Z,4.03
2019-06-26T16:36:35.392Z,3.70
2019-06-26T16:39:07.922Z,3.93
2019-06-26T16:41:38.177Z,4.50
2019-06-26T16:44:07.953Z,3.90
2019-06-26T16:46:38.042Z,4.00
2019-06-26T16:49:08.240Z,4.37
2019-06-26T16:51:38.207Z,4.30
2019-06-26T16:54:07.895Z,4.10
2019-06-26T16:56:37.641Z,3.87
2019-06-26T16:59:07.362Z,4.17
2019-06-26T17:01:37.074Z,4.00
2019-06-26T17:04:07.100Z,3.87
2019-06-26T17:06:37.599Z,4.10
2019-06-26T17:09:09.672Z,3.83
2019-06-26T17:11:39.382Z,4.07
2019-06-26T17:14:09.039Z,4.50
2019-06-26T17:16:38.750Z,4.40
2019-06-26T17:19:08.475Z,3.93
2019-06-26T17:21:38.211Z,3.50
2019-06-26T17:24:07.961Z,4.00
2019-06-26T17:26:37.670Z,3.90
2019-06-26T17:29:07.327Z,4.10
2019-06-26T17:31:37.388Z,3.60
2019-06-26T17:34:07.057Z,3.60
2019-06-26T17:36:36.777Z,4.03
2019-06-26T17:39:07.600Z,3.80
2019-06-26T17:41:37.409Z,3.67
2019-06-26T17:44:07.165Z,3.90
2019-06-26T17:46:37.200Z,3.83
2019-06-26T17:49:06.968Z,3.57
2019-06-26T17:51:36.947Z,4.13
2019-06-26T17:54:06.642Z,4.20
2019-06-26T17:56:36.366Z,3.83
2019-06-26T17:59:06.314Z,3.67
2019-06-26T18:01:36.407Z,3.63
2019-06-26T18:04:06.237Z,3.00
2019-06-26T18:06:36.052Z,3.40
2019-06-26T18:09:12.182Z,4.00
2019-06-26T18:11:40.848Z,3.47
2019-06-26T18:14:10.605Z,3.20
2019-06-26T18:16:40.434Z,3.50
2019-06-26T18:19:10.122Z,3.90
2019-06-26T18:21:39.821Z,3.00
2019-06-26T18:24:09.565Z,3.80
2019-06-26T18:26:39.200Z,3.47
2019-06-26T18:29:08.928Z,3.10
2019-06-26T18:31:38.883Z,3.83
2019-06-26T18:34:08.540Z,3.17
2019-06-26T18:36:38.273Z,3.33
2019-06-26T18:39:09.221Z,3.73
2019-06-26T18:41:38.883Z,4.17
2019-06-26T18:44:08.550Z,3.33
2019-06-26T18:46:38.284Z,3.40
2019-06-26T18:49:07.989Z,4.23
2019-06-26T18:51:37.661Z,4.40
2019-06-26T18:54:31.452Z,4.77
2019-06-26T18:57:01.141Z,4.33
2019-06-26T18:59:30.899Z,5.13
2019-06-26T19:02:00.603Z,4.30
2019-06-26T19:04:31.955Z,4.40
2019-06-26T19:07:01.627Z,4.80
2019-06-26T19:09:31.345Z,4.50
2019-06-26T19:12:01.226Z,4.80
2019-06-26T19:14:30.888Z,4.70
2019-06-26T19:17:00.652Z,4.50
2019-06-26T19:19:30.560Z,5.37
2019-06-26T19:22:00.215Z,4.87
2019-06-26T19:24:29.888Z,4.57
2019-06-26T19:26:59.532Z,4.73
2019-06-26T19:29:29.213Z,5.63
2019-06-26T19:31:58.888Z,5.40
2019-06-26T19:34:28.593Z,4.87
2019-06-26T19:36:58.240Z,5.40
2019-06-26T19:39:27.928Z,4.00
2019-06-26T19:41:57.618Z,4.87
2019-06-26T19:44:27.314Z,4.73
2019-06-26T19:46:56.999Z,5.90
2019-06-26T19:49:26.717Z,5.13
2019-06-26T19:51:56.410Z,4.83
2019-06-26T19:54:28.646Z,6.00
2019-06-26T19:56:57.648Z,4.73
2019-06-26T19:59:27.629Z,5.50
2019-06-26T20:01:57.366Z,6.47
2019-06-26T20:04:27.063Z,5.90
2019-06-26T20:06:56.836Z,5.90
2019-06-26T20:09:26.661Z,5.60
2019-06-26T20:11:56.348Z,6.30
2019-06-26T20:14:26.038Z,6.03
2019-06-26T20:16:56.335Z,5.87
2019-06-26T20:19:26.089Z,5.17
2019-06-26T20:21:55.772Z,4.77
2019-06-26T20:24:25.484Z,5.13
2019-06-26T20:26:55.216Z,5.20
2019-06-26T20:29:24.914Z,4.90
2019-06-26T20:31:54.601Z,5.83
2019-06-26T20:34:24.257Z,5.57
2019-06-26T20:36:54.025Z,5.47
2019-06-26T20:39:23.729Z,5.20
2019-06-26T20:41:53.426Z,4.70
2019-06-26T20:44:23.121Z,4.53
2019-06-26T20:46:52.880Z,5.10
2019-06-26T20:49:22.580Z,4.90
2019-06-26T20:51:52.307Z,5.20
2019-06-26T20:54:22.465Z,4.57
2019-06-26T20:56:52.250Z,4.80
2019-06-26T20:59:22.005Z,5.00
2019-06-26T21:01:52.408Z,4.67
2019-06-26T21:04:22.139Z,4.87
2019-06-26T21:06:51.834Z,4.40
2019-06-26T21:09:21.735Z,4.90
2019-06-26T21:11:51.699Z,5.03
2019-06-26T21:14:40.687Z,5.40
2019-06-26T21:17:10.360Z,5.60
2019-06-26T21:19:40.059Z,4.77
2019-06-26T21:22:09.766Z,5.03
2019-06-26T21:24:39.701Z,4.80
2019-06-26T21:27:32.098Z,4.20
2019-06-26T21:30:00.784Z,4.57
2019-06-26T21:32:30.548Z,4.60
2019-06-26T21:35:00.268Z,4.50
2019-06-26T21:37:29.962Z,4.90
2019-06-26T21:39:59.702Z,4.90
2019-06-26T21:42:29.421Z,4.90
2019-06-26T21:44:59.126Z,5.23
2019-06-26T21:47:28.864Z,5.10
2019-06-26T21:49:58.596Z,5.00
2019-06-26T21:52:28.366Z,4.10
2019-06-26T21:54:58.321Z,4.00
2019-06-26T21:57:27.999Z,4.60
2019-06-26T21:59:57.694Z,4.70
2019-06-26T22:02:27.433Z,4.37
2019-06-26T22:04:57.160Z,5.20
2019-06-26T22:07:26.849Z,4.43
2019-06-26T22:09:56.715Z,4.40
2019-06-26T22:12:26.535Z,4.20
2019-06-26T22:14:56.245Z,3.50
2019-06-26T22:17:26.207Z,4.53
2019-06-26T22:19:56.045Z,4.07
2019-06-26T22:22:25.711Z,4.20
2019-06-26T22:24:55.720Z,4.23
2019-06-26T22:27:25.991Z,3.63
2019-06-26T22:29:55.692Z,3.50
2019-06-26T22:32:25.431Z,3.63
2019-06-26T22:34:55.185Z,3.60
2019-06-26T22:37:25.225Z,3.83
2019-06-26T22:39:54.885Z,3.03
2019-06-26T22:42:24.898Z,4.20
2019-06-26T22:44:54.609Z,3.70
2019-06-26T22:47:24.512Z,3.30
2019-06-26T22:49:54.199Z,4.00
2019-06-26T22:52:24.014Z,4.30
2019-06-26T22:54:53.676Z,3.70
2019-06-26T22:57:23.386Z,3.57
2019-06-26T22:59:53.166Z,3.90
2019-06-26T23:02:22.816Z,3.60
2019-06-26T23:04:52.496Z,4.50
2019-06-26T23:07:22.214Z,4.80
2019-06-26T23:09:51.870Z,4.17
2019-06-26T23:12:22.545Z,4.20
2019-06-26T23:14:52.268Z,4.50
2019-06-26T23:17:22.156Z,4.90
2019-06-26T23:19:51.806Z,4.47
2019-06-26T23:22:21.525Z,4.70
2019-06-26T23:24:51.240Z,4.40
2019-06-26T23:27:21.002Z,4.20
2019-06-26T23:29:50.745Z,4.87
2019-06-26T23:32:20.889Z,4.60
2019-06-26T23:34:50.621Z,4.63
2019-06-26T23:37:20.290Z,4.30
2019-06-26T23:39:50.212Z,4.77
2019-06-26T23:42:19.940Z,4.60
2019-06-26T23:44:49.596Z,4.90
2019-06-26T23:47:19.545Z,5.47
2019-06-26T23:49:49.293Z,5.30
2019-06-26T23:52:18.993Z,4.90
2019-06-26T23:54:48.695Z,4.60
2019-06-26T23:57:18.786Z,4.60
2019-06-26T23:59:48.591Z,5.03
